Time;durP1;ratioP1;P1;durP2;ratioP2;P2;SDS_P1;SDS_P2;PMS_P1;PMS_P2;Temp;Humidity;BMP_temperature;BMP_pressure;BME280_temperature;BME280_humidity;BME280_pressure;Samples;Min_cycle;Max_cycle;Signal;HPM_P1;HPM_P2
2021/09/28 00:00:12;;;;;;;6.73;3.63;;;14.40;99.90;;;;;;4996334;28;20190;-71
2021/09/28 00:02:38;;;;;;;7.10;4.03;;;14.40;99.90;;;;;;4996393;28;20199;-70
2021/09/28 00:05:04;;;;;;;8.03;3.23;;;14.40;99.90;;;;;;4996596;28;20404;-72
2021/09/28 00:07:30;;;;;;;6.77;3.80;;;14.40;99.90;;;;;;4995482;28;20208;-71
2021/09/28 00:09:56;;;;;;;4.30;3.17;;;14.40;99.90;;;;;;4996210;28;20452;-70
2021/09/28 00:12:21;;;;;;;7.90;4.00;;;14.30;99.90;;;;;;4996597;28;20533;-70
2021/09/28 00:14:47;;;;;;;9.40;4.13;;;14.30;99.90;;;;;;4996646;28;20226;-70
2021/09/28 00:17:12;;;;;;;6.63;3.67;;;14.30;99.90;;;;;;4996035;28;20188;-72
2021/09/28 00:19:39;;;;;;;6.67;3.60;;;14.30;99.90;;;;;;4994758;28;20187;-69
2021/09/28 00:22:05;;;;;;;6.30;3.50;;;14.20;99.90;;;;;;4988455;28;20523;-70
2021/09/28 00:24:31;;;;;;;10.10;4.97;;;14.20;99.90;;;;;;4996905;28;20405;-71
2021/09/28 00:26:57;;;;;;;10.23;4.97;;;14.20;99.90;;;;;;4996404;28;20455;-70
2021/09/28 00:29:22;;;;;;;8.37;3.73;;;14.20;99.90;;;;;;4997634;28;20418;-71
2021/09/28 00:31:48;;;;;;;8.00;4.00;;;14.20;99.90;;;;;;5001712;28;20281;-70
2021/09/28 00:34:13;;;;;;;6.03;3.80;;;14.10;99.90;;;;;;5011378;28;20216;-70
2021/09/28 00:36:39;;;;;;;6.57;3.80;;;14.10;99.90;;;;;;5007068;28;20200;-70
2021/09/28 00:39:04;;;;;;;9.07;3.70;;;14.00;99.90;;;;;;4997651;28;20201;-71
2021/09/28 00:41:30;;;;;;;9.27;3.43;;;14.10;99.90;;;;;;4999210;28;20635;-70
2021/09/28 00:43:56;;;;;;;11.23;3.77;;;14.00;99.90;;;;;;5000310;28;20204;-71
2021/09/28 00:46:22;;;;;;;6.70;3.40;;;14.00;99.90;;;;;;5003779;28;20208;-71
2021/09/28 00:48:48;;;;;;;10.77;4.57;;;14.00;99.90;;;;;;4994608;28;20428;-70
2021/09/28 00:51:15;;;;;;;10.67;3.77;;;14.00;99.90;;;;;;4995211;28;20199;-70
2021/09/28 00:53:41;;;;;;;6.90;3.67;;;13.90;99.90;;;;;;4996219;28;20268;-70
2021/09/28 00:56:09;;;;;;;6.80;3.43;;;13.80;99.90;;;;;;4997154;28;20403;-70
2021/09/28 00:58:35;;;;;;;7.40;3.30;;;13.80;99.90;;;;;;4994866;28;20474;-70
2021/09/28 01:01:03;;;;;;;6.83;3.63;;;13.80;99.90;;;;;;4979797;28;20878;-70
2021/09/28 01:03:30;;;;;;;10.40;4.70;;;13.80;99.90;;;;;;4982030;28;20423;-70
2021/09/28 01:05:56;;;;;;;6.07;3.17;;;13.70;99.90;;;;;;4995333;28;20420;-71
2021/09/28 01:08:21;;;;;;;6.80;3.90;;;13.80;99.90;;;;;;4993516;28;20431;-70
2021/09/28 01:10:47;;;;;;;6.33;3.93;;;13.80;99.90;;;;;;4994901;28;20641;-69
2021/09/28 01:13:12;;;;;;;6.60;3.20;;;13.90;99.90;;;;;;4995419;28;20180;-70
2021/09/28 01:15:38;;;;;;;8.50;3.97;;;13.80;99.90;;;;;;4995034;28;20176;-70
2021/09/28 01:18:03;;;;;;;8.03;3.53;;;13.80;99.90;;;;;;4994938;28;20546;-70
2021/09/28 01:20:29;;;;;;;7.33;3.80;;;13.80;99.90;;;;;;4994493;28;20176;-71
2021/09/28 01:22:55;;;;;;;8.50;4.33;;;13.70;99.90;;;;;;4994869;28;20196;-70
2021/09/28 01:25:20;;;;;;;7.60;3.83;;;13.70;99.90;;;;;;4994765;28;20259;-70
2021/09/28 01:27:46;;;;;;;10.13;3.77;;;13.70;99.90;;;;;;4994260;28;20632;-70
2021/09/28 01:30:12;;;;;;;7.53;3.50;;;13.70;99.90;;;;;;4993778;28;20260;-70
2021/09/28 01:32:38;;;;;;;4.63;3.07;;;13.70;99.90;;;;;;4993380;28;20549;-70
2021/09/28 01:35:05;;;;;;;5.70;3.10;;;13.70;99.90;;;;;;4994513;28;20776;-71
2021/09/28 01:37:31;;;;;;;6.17;4.23;;;13.60;99.90;;;;;;4994271;28;20453;-69
2021/09/28 01:39:56;;;;;;;6.90;3.60;;;13.70;99.90;;;;;;4995803;28;20494;-70
2021/09/28 01:42:22;;;;;;;6.57;3.80;;;13.60;99.90;;;;;;4997504;28;20172;-70
2021/09/28 01:44:48;;;;;;;9.77;3.97;;;13.70;99.90;;;;;;4998057;28;20183;-70
2021/09/28 01:47:13;;;;;;;10.67;5.30;;;13.70;99.90;;;;;;4997495;28;20298;-69
2021/09/28 01:49:39;;;;;;;16.80;4.40;;;13.70;99.90;;;;;;4997062;28;20534;-70
2021/09/28 01:52:04;;;;;;;10.40;4.50;;;13.70;99.90;;;;;;4994587;28;20621;-70
2021/09/28 01:54:30;;;;;;;6.60;3.80;;;13.60;99.90;;;;;;4995320;28;20179;-69
2021/09/28 01:56:56;;;;;;;4.70;3.40;;;13.50;99.90;;;;;;4996601;28;20532;-70
2021/09/28 01:59:21;;;;;;;8.10;2.80;;;13.50;99.90;;;;;;4997280;28;20176;-70
2021/09/28 02:01:47;;;;;;;12.67;3.70;;;13.50;99.90;;;;;;4995791;28;20267;-70
2021/09/28 02:04:13;;;;;;;9.00;3.47;;;13.50;99.90;;;;;;4994543;28;20665;-72
2021/09/28 02:06:39;;;;;;;6.33;3.70;;;13.40;99.90;;;;;;4995222;28;20477;-69
2021/09/28 02:09:07;;;;;;;5.17;3.30;;;13.30;99.90;;;;;;4994717;28;20294;-69
2021/09/28 02:11:34;;;;;;;7.43;3.30;;;13.20;99.90;;;;;;4995832;28;20403;-69
2021/09/28 02:14:01;;;;;;;6.97;3.70;;;13.20;99.90;;;;;;5001917;28;20411;-69
2021/09/28 02:16:27;;;;;;;6.37;3.47;;;13.10;99.90;;;;;;5004695;28;20772;-69
2021/09/28 02:18:53;;;;;;;4.10;3.10;;;13.20;99.90;;;;;;5001393;28;20447;-70
2021/09/28 02:21:18;;;;;;;9.27;3.80;;;13.10;99.90;;;;;;5001830;28;20255;-69
2021/09/28 02:23:44;;;;;;;8.10;3.50;;;13.10;99.90;;;;;;5002131;28;20184;-69
2021/09/28 02:26:10;;;;;;;9.07;4.17;;;13.20;99.90;;;;;;5001232;28;20206;-69
2021/09/28 02:28:35;;;;;;;5.47;3.37;;;13.20;99.90;;;;;;5001651;28;20285;-69
2021/09/28 02:31:01;;;;;;;5.23;3.37;;;13.20;99.90;;;;;;5001180;28;20184;-71
2021/09/28 02:33:27;;;;;;;7.37;3.27;;;13.20;99.90;;;;;;5000756;28;20554;-70
2021/09/28 02:35:53;;;;;;;5.37;3.20;;;13.10;99.90;;;;;;5001145;28;20176;-70
2021/09/28 02:38:18;;;;;;;8.17;3.10;;;13.10;99.90;;;;;;5000843;28;20482;-69
2021/09/28 02:40:44;;;;;;;8.30;3.90;;;13.20;99.90;;;;;;5001035;28;20250;-70
2021/09/28 02:43:10;;;;;;;10.00;5.17;;;13.20;99.90;;;;;;5000618;28;20180;-69
2021/09/28 02:45:36;;;;;;;9.00;4.50;;;13.20;99.90;;;;;;5000325;28;20466;-69
2021/09/28 02:48:01;;;;;;;6.43;4.40;;;13.20;99.90;;;;;;4998727;28;20318;-71
2021/09/28 02:50:27;;;;;;;9.60;4.80;;;13.20;99.90;;;;;;5000855;28;20214;-69
2021/09/28 02:52:52;;;;;;;9.93;5.10;;;13.20;99.90;;;;;;5000404;28;20183;-70
2021/09/28 02:55:18;;;;;;;6.50;3.53;;;13.20;99.90;;;;;;5001022;28;20558;-70
2021/09/28 02:57:43;;;;;;;9.30;4.23;;;13.30;99.90;;;;;;5000246;28;20273;-70
2021/09/28 03:00:10;;;;;;;9.40;4.00;;;13.20;99.90;;;;;;5000249;28;20186;-70
2021/09/28 03:02:35;;;;;;;8.97;4.00;;;13.20;99.90;;;;;;5000859;28;20231;-70
2021/09/28 03:05:01;;;;;;;6.60;3.93;;;13.20;99.90;;;;;;4999505;28;20439;-70
2021/09/28 03:07:26;;;;;;;7.60;3.50;;;13.20;99.90;;;;;;4991554;28;20232;-70
2021/09/28 03:09:52;;;;;;;12.50;5.10;;;13.30;99.90;;;;;;4981026;28;20211;-69
2021/09/28 03:12:18;;;;;;;19.57;4.83;;;13.40;99.90;;;;;;4981040;28;20208;-70
2021/09/28 03:14:43;;;;;;;7.40;3.80;;;13.40;99.90;;;;;;4993130;28;20636;-70
2021/09/28 03:17:09;;;;;;;8.37;4.43;;;13.30;99.90;;;;;;5000375;28;20241;-70
2021/09/28 03:19:34;;;;;;;15.33;4.73;;;13.10;99.90;;;;;;5000620;28;20168;-70
2021/09/28 03:22:00;;;;;;;8.03;4.20;;;13.10;99.90;;;;;;5000096;28;20206;-70
2021/09/28 03:24:25;;;;;;;8.20;4.40;;;13.10;99.90;;;;;;4997574;28;20638;-70
2021/09/28 03:26:51;;;;;;;8.77;4.93;;;13.00;99.90;;;;;;4995966;28;20424;-71
2021/09/28 03:29:16;;;;;;;7.77;4.80;;;13.10;99.90;;;;;;4997285;28;20172;-70
2021/09/28 03:31:42;;;;;;;7.83;4.50;;;13.00;99.90;;;;;;4996640;28;20215;-70
2021/09/28 03:34:07;;;;;;;10.90;5.00;;;13.10;99.90;;;;;;4997481;28;20176;-69
2021/09/28 03:36:33;;;;;;;9.07;5.07;;;13.00;99.90;;;;;;4997030;28;20184;-70
2021/09/28 03:38:58;;;;;;;8.37;5.07;;;13.00;99.90;;;;;;4997101;28;20259;-71
2021/09/28 03:41:24;;;;;;;11.33;5.63;;;12.90;99.90;;;;;;4997847;28;20176;-71
2021/09/28 03:43:49;;;;;;;7.80;4.50;;;12.90;99.90;;;;;;4998449;28;20176;-70
2021/09/28 03:46:15;;;;;;;9.37;4.17;;;12.90;99.90;;;;;;4992459;28;20248;-71
2021/09/28 03:48:41;;;;;;;9.37;5.20;;;12.90;99.90;;;;;;4988917;28;20698;-70
2021/09/28 03:51:07;;;;;;;8.03;5.37;;;12.90;99.90;;;;;;4983370;28;20177;-70
2021/09/28 03:53:32;;;;;;;11.83;8.70;;;12.90;99.90;;;;;;4991890;28;20165;-70
2021/09/28 03:55:58;;;;;;;9.23;5.30;;;12.90;99.90;;;;;;4992027;28;20483;-71
2021/09/28 03:58:24;;;;;;;8.70;5.60;;;12.90;99.90;;;;;;4995054;28;20297;-70
2021/09/28 04:00:49;;;;;;;11.97;6.50;;;12.90;99.90;;;;;;5009186;28;20188;-70
2021/09/28 04:03:15;;;;;;;15.33;6.10;;;12.90;99.90;;;;;;4999121;28;20181;-72
2021/09/28 04:05:40;;;;;;;11.27;5.30;;;12.90;99.90;;;;;;4985531;28;20263;-70
2021/09/28 04:08:06;;;;;;;10.53;4.93;;;12.90;99.90;;;;;;4987887;28;20227;-70
2021/09/28 04:10:35;;;;;;;8.77;5.10;;;12.80;99.90;;;;;;4987552;28;20180;-70
2021/09/28 04:13:06;;;;;;;10.37;5.73;;;12.80;99.90;;;;;;4986499;28;20419;-70
2021/09/28 04:15:38;;;;;;;11.00;5.57;;;12.90;99.90;;;;;;4978807;28;20424;-71
2021/09/28 04:18:04;;;;;;;8.53;5.33;;;12.80;99.90;;;;;;4985734;28;20451;-71
2021/09/28 04:20:32;;;;;;;11.00;4.73;;;12.80;99.90;;;;;;4995008;28;20430;-70
2021/09/28 04:22:58;;;;;;;8.90;4.80;;;12.80;99.90;;;;;;4996141;28;20610;-71
2021/09/28 04:25:23;;;;;;;10.90;5.60;;;12.80;99.90;;;;;;4996042;28;20415;-70
2021/09/28 04:27:49;;;;;;;11.10;4.50;;;12.80;99.90;;;;;;4996015;28;20216;-70
2021/09/28 04:30:15;;;;;;;12.77;5.13;;;12.70;99.90;;;;;;4993282;28;20184;-71
2021/09/28 04:32:40;;;;;;;7.67;4.40;;;12.70;99.90;;;;;;4996698;28;20211;-69
2021/09/28 04:35:06;;;;;;;10.50;5.13;;;12.70;99.90;;;;;;4995950;28;20169;-69
2021/09/28 04:37:31;;;;;;;9.33;5.63;;;12.80;99.90;;;;;;4996901;28;20192;-69
2021/09/28 04:39:57;;;;;;;6.80;4.63;;;12.80;99.90;;;;;;4997400;28;20266;-70
2021/09/28 04:42:22;;;;;;;5.83;4.07;;;12.90;99.90;;;;;;4995914;28;20183;-69
2021/09/28 04:44:48;;;;;;;12.10;4.50;;;12.80;99.90;;;;;;4996622;28;20188;-71
2021/09/28 04:47:13;;;;;;;12.00;6.83;;;12.80;99.90;;;;;;4995780;28;20211;-70
2021/09/28 04:49:39;;;;;;;9.93;4.30;;;12.80;99.90;;;;;;4995640;28;20212;-71
2021/09/28 04:52:05;;;;;;;10.60;4.87;;;12.80;99.90;;;;;;4995899;28;20184;-70
2021/09/28 04:54:30;;;;;;;10.07;4.80;;;12.70;99.90;;;;;;4995358;28;20184;-70
2021/09/28 04:56:56;;;;;;;10.37;4.37;;;12.70;99.90;;;;;;4996042;28;20688;-69
2021/09/28 04:59:21;;;;;;;10.03;4.63;;;12.70;99.90;;;;;;4994784;28;20184;-70
2021/09/28 05:01:47;;;;;;;10.23;5.07;;;12.60;99.90;;;;;;4995982;28;20618;-71
2021/09/28 05:04:12;;;;;;;10.73;6.20;;;12.60;99.90;;;;;;4995728;28;20197;-69
2021/09/28 05:06:38;;;;;;;9.60;5.07;;;12.60;99.90;;;;;;4995405;28;20204;-70
2021/09/28 05:09:03;;;;;;;9.70;5.80;;;12.60;99.90;;;;;;4995386;28;20227;-69
2021/09/28 05:11:29;;;;;;;9.57;5.33;;;12.60;99.90;;;;;;4994716;28;20374;-70
2021/09/28 05:13:54;;;;;;;10.20;5.23;;;12.60;99.90;;;;;;4995263;28;20199;-70
2021/09/28 05:16:20;;;;;;;10.23;4.73;;;12.50;99.90;;;;;;4995199;28;20212;-69
2021/09/28 05:18:46;;;;;;;7.93;4.63;;;12.60;99.90;;;;;;4995656;28;20219;-69
2021/09/28 05:21:12;;;;;;;6.93;4.70;;;12.50;99.90;;;;;;4989489;28;20311;-70
2021/09/28 05:23:38;;;;;;;10.60;5.47;;;12.50;99.90;;;;;;4993598;28;20474;-70
2021/09/28 05:26:07;;;;;;;9.13;6.03;;;12.50;99.90;;;;;;4991889;28;20987;-70
2021/09/28 05:28:32;;;;;;;8.07;4.73;;;12.50;99.90;;;;;;4993984;28;20219;-71
2021/09/28 05:30:58;;;;;;;9.60;5.47;;;12.50;99.90;;;;;;4991345;28;20428;-72
2021/09/28 05:33:24;;;;;;;8.70;5.10;;;12.50;99.90;;;;;;4992442;28;20971;-71
2021/09/28 05:35:49;;;;;;;12.47;5.23;;;12.50;99.90;;;;;;4992446;28;20231;-72
2021/09/28 05:38:15;;;;;;;9.47;5.07;;;12.50;99.90;;;;;;4992552;28;20203;-70
2021/09/28 05:40:40;;;;;;;9.07;4.77;;;12.50;99.90;;;;;;4993330;28;20554;-70
2021/09/28 05:43:06;;;;;;;10.40;5.40;;;12.60;99.90;;;;;;4992887;28;20339;-72
2021/09/28 05:45:31;;;;;;;10.37;5.57;;;12.60;99.90;;;;;;4993314;28;20578;-72
2021/09/28 05:47:57;;;;;;;8.57;5.80;;;12.60;99.90;;;;;;4991644;28;20208;-73
2021/09/28 05:50:23;;;;;;;12.30;6.33;;;12.60;99.90;;;;;;4993724;28;20196;-70
2021/09/28 05:52:49;;;;;;;10.20;5.50;;;12.60;99.90;;;;;;4993260;28;20179;-72
2021/09/28 05:55:15;;;;;;;9.90;5.00;;;12.60;99.90;;;;;;4993541;28;20164;-72
2021/09/28 05:57:41;;;;;;;7.77;4.97;;;12.60;99.90;;;;;;4991568;28;20459;-70
2021/09/28 06:00:15;;;;;;;13.07;7.20;;;12.70;99.90;;;;;;4994888;28;20410;-71
2021/09/28 06:02:40;;;;;;;13.13;7.60;;;12.60;99.90;;;;;;4994426;28;20541;-71
2021/09/28 06:05:07;;;;;;;9.77;5.87;;;12.60;99.90;;;;;;5001661;28;20506;-71
2021/09/28 06:07:32;;;;;;;10.53;7.13;;;12.60;99.90;;;;;;4995207;28;20204;-72
2021/09/28 06:09:58;;;;;;;6.37;4.67;;;12.60;99.90;;;;;;4999036;28;20533;-70
2021/09/28 06:12:24;;;;;;;16.30;5.90;;;12.50;99.90;;;;;;4997151;28;20560;-70
2021/09/28 06:14:49;;;;;;;9.10;4.57;;;12.50;99.90;;;;;;4998156;28;20183;-70
2021/09/28 06:17:15;;;;;;;8.53;5.27;;;12.50;99.90;;;;;;4998201;28;20266;-70
2021/09/28 06:19:40;;;;;;;10.60;5.43;;;12.60;99.90;;;;;;4998089;28;20203;-71
2021/09/28 06:22:07;;;;;;;15.23;4.60;;;12.70;99.90;;;;;;4997165;28;20191;-71
2021/09/28 06:24:33;;;;;;;10.57;4.10;;;12.70;99.90;;;;;;4994496;28;20559;-71
2021/09/28 06:27:04;;;;;;;10.47;4.37;;;12.80;99.90;;;;;;4994686;28;20454;-70
2021/09/28 06:29:30;;;;;;;13.33;5.20;;;12.90;99.90;;;;;;4994437;28;20431;-71
2021/09/28 06:31:56;;;;;;;6.30;4.23;;;13.00;99.90;;;;;;4995188;28;20522;-70
2021/09/28 06:34:22;;;;;;;8.57;4.33;;;13.00;99.90;;;;;;4994525;28;20171;-70
2021/09/28 06:36:47;;;;;;;11.50;4.07;;;13.00;99.90;;;;;;4994727;28;20431;-70
2021/09/28 06:39:13;;;;;;;8.93;4.07;;;13.10;99.90;;;;;;4994666;28;20215;-71
2021/09/28 06:41:38;;;;;;;13.93;4.93;;;13.10;99.90;;;;;;4995135;28;20626;-69
2021/09/28 06:44:05;;;;;;;6.87;5.00;;;13.10;99.90;;;;;;4994544;28;20697;-69
2021/09/28 06:46:32;;;;;;;11.77;4.70;;;13.20;99.90;;;;;;4993385;28;20204;-69
2021/09/28 06:48:57;;;;;;;6.30;4.10;;;13.20;99.90;;;;;;4993903;28;20963;-70
2021/09/28 06:51:23;;;;;;;5.13;3.60;;;13.20;99.90;;;;;;4993992;28;20411;-69
2021/09/28 06:53:49;;;;;;;8.00;4.00;;;13.30;99.90;;;;;;4994229;28;20211;-70
2021/09/28 06:56:17;;;;;;;9.37;4.10;;;13.30;99.90;;;;;;4993753;28;20198;-69
2021/09/28 06:58:43;;;;;;;6.80;3.67;;;13.40;99.90;;;;;;4994882;28;20450;-70
2021/09/28 07:01:09;;;;;;;7.87;3.17;;;13.40;99.90;;;;;;4998878;28;20939;-69
2021/09/28 07:03:34;;;;;;;9.50;3.77;;;13.50;99.90;;;;;;4998458;28;20185;-70
2021/09/28 07:06:01;;;;;;;10.33;3.27;;;13.50;99.90;;;;;;4998929;28;20586;-70
2021/09/28 07:08:27;;;;;;;5.77;3.83;;;13.60;99.90;;;;;;5002250;28;20587;-69
2021/09/28 07:10:53;;;;;;;4.47;3.07;;;13.60;99.90;;;;;;5010506;28;20498;-70
2021/09/28 07:13:19;;;;;;;7.83;2.73;;;13.70;99.90;;;;;;5016424;28;20407;-69
2021/09/28 07:15:44;;;;;;;7.00;3.23;;;13.70;99.90;;;;;;5005956;28;20231;-70
2021/09/28 07:18:11;;;;;;;6.87;3.30;;;13.70;99.90;;;;;;5008699;28;20504;-70
2021/09/28 07:20:37;;;;;;;7.80;3.27;;;13.70;99.90;;;;;;5015537;28;20180;-70
2021/09/28 07:23:03;;;;;;;7.70;3.20;;;13.80;99.90;;;;;;5012714;28;20408;-70
2021/09/28 07:25:29;;;;;;;5.40;2.73;;;13.90;99.90;;;;;;5005874;28;20502;-70
2021/09/28 07:27:58;;;;;;;9.53;3.07;;;13.90;99.90;;;;;;5001264;28;20471;-71
2021/09/28 07:30:25;;;;;;;7.67;2.70;;;14.00;99.90;;;;;;4997868;28;20207;-70
2021/09/28 07:32:51;;;;;;;6.30;2.53;;;14.00;99.90;;;;;;4996686;28;20427;-69
2021/09/28 07:35:16;;;;;;;5.23;2.73;;;14.00;99.90;;;;;;4997212;28;20796;-71
2021/09/28 07:37:42;;;;;;;8.03;3.07;;;14.00;99.90;;;;;;4995725;28;20200;-71
2021/09/28 07:40:08;;;;;;;3.90;2.87;;;14.00;99.90;;;;;;4997310;28;20251;-71
2021/09/28 07:42:33;;;;;;;4.93;2.70;;;14.10;99.90;;;;;;4998804;28;20263;-71
2021/09/28 07:45:02;;;;;;;6.70;2.43;;;14.20;99.90;;;;;;5002626;28;20458;-71
2021/09/28 07:47:31;;;;;;;7.63;2.97;;;14.30;99.90;;;;;;4998044;28;20239;-71
2021/09/28 07:49:56;;;;;;;4.70;2.83;;;14.30;99.90;;;;;;4999318;28;20439;-71
2021/09/28 07:52:22;;;;;;;5.40;2.40;;;14.40;99.90;;;;;;4996812;28;20779;-70
2021/09/28 07:54:48;;;;;;;3.23;1.80;;;14.40;99.90;;;;;;4997075;28;20172;-70
2021/09/28 07:57:13;;;;;;;6.53;3.20;;;14.40;99.90;;;;;;5001257;28;20192;-70
2021/09/28 07:59:39;;;;;;;4.50;2.30;;;14.50;99.90;;;;;;5001205;28;20558;-70
2021/09/28 08:02:05;;;;;;;4.37;2.80;;;14.50;99.90;;;;;;5000505;28;20175;-70
2021/09/28 08:04:31;;;;;;;7.63;3.07;;;14.60;99.90;;;;;;4997078;28;20279;-70
2021/09/28 08:06:57;;;;;;;4.87;2.17;;;14.70;99.90;;;;;;4996195;28;20487;-71
2021/09/28 08:09:23;;;;;;;9.37;2.70;;;14.70;99.90;;;;;;4994950;28;20822;-70
2021/09/28 08:11:48;;;;;;;6.53;2.43;;;14.80;99.90;;;;;;4995293;28;20566;-71
2021/09/28 08:14:14;;;;;;;5.93;2.50;;;14.80;99.90;;;;;;4995822;28;20200;-70
2021/09/28 08:16:40;;;;;;;8.53;2.20;;;14.90;99.90;;;;;;4996188;28;20577;-71
2021/09/28 08:19:06;;;;;;;7.63;2.67;;;14.90;99.90;;;;;;4995982;28;20211;-71
2021/09/28 08:21:32;;;;;;;4.70;2.37;;;14.80;99.90;;;;;;4996685;28;20411;-70
2021/09/28 08:23:58;;;;;;;5.90;2.40;;;14.90;99.90;;;;;;4996045;28;20184;-70
2021/09/28 08:29:09;;;;;;;9.10;3.10;;;15.00;99.90;;;;;;4995922;28;20196;-70
2021/09/28 08:31:37;;;;;;;7.27;2.50;;;15.10;99.90;;;;;;4996754;28;20403;-71
2021/09/28 08:34:03;;;;;;;6.80;2.40;;;15.10;99.90;;;;;;4995937;28;20424;-70
2021/09/28 08:36:30;;;;;;;4.60;2.33;;;15.10;99.90;;;;;;4995581;28;20419;-70
2021/09/28 08:38:56;;;;;;;7.73;2.80;;;15.20;99.90;;;;;;4996026;28;20522;-70
2021/09/28 08:41:22;;;;;;;7.70;3.53;;;15.30;99.90;;;;;;4996170;28;20435;-73
2021/09/28 08:43:49;;;;;;;6.07;2.30;;;15.40;99.90;;;;;;4995828;28;20983;-70
2021/09/28 08:46:15;;;;;;;9.53;2.43;;;15.50;99.90;;;;;;4995979;28;20209;-70
2021/09/28 08:48:43;;;;;;;12.20;3.00;;;15.60;99.90;;;;;;4995847;28;20443;-70
2021/09/28 08:51:09;;;;;;;4.63;2.60;;;15.60;99.90;;;;;;4994857;28;20580;-71
2021/09/28 08:53:36;;;;;;;6.73;3.10;;;15.70;99.90;;;;;;4995040;28;20474;-71
2021/09/28 08:56:05;;;;;;;5.20;2.40;;;15.80;99.90;;;;;;4995456;28;20764;-71
2021/09/28 08:58:31;;;;;;;4.87;2.23;;;15.80;99.90;;;;;;4995685;28;20918;-71
2021/09/28 09:01:07;;;;;;;8.50;2.60;;;15.90;99.90;;;;;;4996055;28;20411;-71
2021/09/28 09:03:36;;;;;;;7.53;2.63;;;15.90;99.90;;;;;;4996956;28;20626;-71
2021/09/28 09:06:07;;;;;;;7.60;4.03;;;16.00;99.90;;;;;;4987296;28;20427;-72
2021/09/28 09:08:35;;;;;;;7.53;2.83;;;16.10;99.90;;;;;;4996841;28;20427;-71
2021/09/28 09:11:13;;;;;;;6.00;3.23;;;16.20;99.90;;;;;;4998463;28;20414;-70
2021/09/28 09:13:42;;;;;;;7.90;2.60;;;16.20;99.90;;;;;;4998299;28;20420;-71
2021/09/28 09:16:11;;;;;;;5.83;2.80;;;16.30;99.90;;;;;;4995275;28;20447;-71
2021/09/28 09:18:37;;;;;;;6.77;2.73;;;16.30;99.90;;;;;;4993659;28;20442;-71
2021/09/28 09:21:05;;;;;;;5.63;2.97;;;16.40;99.90;;;;;;4995522;28;20447;-71
2021/09/28 09:23:36;;;;;;;3.80;2.73;;;16.50;99.90;;;;;;4994709;28;20415;-71
2021/09/28 09:26:15;;;;;;;2.73;2.27;;;16.60;99.90;;;;;;4994018;28;20777;-70
2021/09/28 09:28:55;;;;;;;10.27;2.77;;;16.70;99.90;;;;;;4995493;28;20942;-71
2021/09/28 09:31:37;;;;;;;3.53;2.27;;;16.90;99.90;;;;;;4995164;28;20526;-73
2021/09/28 09:34:09;;;;;;;4.27;2.17;;;16.90;99.90;;;;;;4977253;28;20820;-70
2021/09/28 09:36:36;;;;;;;4.63;2.50;;;17.00;99.90;;;;;;4976517;28;20420;-71
2021/09/28 09:39:03;;;;;;;4.97;2.23;;;17.10;99.90;;;;;;4975779;28;20874;-71
2021/09/28 09:41:33;;;;;;;6.03;2.43;;;17.20;99.90;;;;;;4976252;28;20901;-71
2021/09/28 09:44:05;;;;;;;5.30;2.50;;;17.20;99.90;;;;;;4992049;28;20434;-70
2021/09/28 09:46:45;;;;;;;7.13;2.80;;;17.30;99.90;;;;;;4996131;28;20454;-68
2021/09/28 09:49:13;;;;;;;4.00;2.00;;;17.40;99.90;;;;;;4993644;28;20534;-70
2021/09/28 09:51:45;;;;;;;6.10;2.70;;;17.50;99.90;;;;;;4995217;28;20414;-71
2021/09/28 09:54:11;;;;;;;5.50;2.60;;;17.60;99.90;;;;;;4994531;28;20482;-71
2021/09/28 09:56:51;;;;;;;6.83;2.50;;;17.60;99.90;;;;;;4994831;28;20420;-70
2021/09/28 09:59:22;;;;;;;5.00;2.50;;;17.70;99.90;;;;;;4995446;28;20503;-71
2021/09/28 10:01:49;;;;;;;4.67;2.80;;;17.70;99.90;;;;;;4994168;28;20431;-71
2021/09/28 10:04:17;;;;;;;6.70;3.27;;;17.60;99.90;;;;;;4994668;28;20430;-71
2021/09/28 10:06:42;;;;;;;7.90;2.80;;;17.70;99.90;;;;;;4994177;28;20506;-71
2021/09/28 10:09:22;;;;;;;10.33;3.33;;;17.70;99.90;;;;;;4994479;28;20435;-70
2021/09/28 10:11:53;;;;;;;5.60;2.60;;;17.70;99.90;;;;;;4994864;28;20168;-70
2021/09/28 10:14:35;;;;;;;4.77;2.83;;;17.70;99.90;;;;;;4995033;28;20435;-71
2021/09/28 10:17:26;;;;;;;10.60;3.10;;;17.70;99.90;;;;;;4994897;28;20454;-71
2021/09/28 10:19:53;;;;;;;7.53;3.20;;;17.80;99.90;;;;;;4995424;28;20412;-71
2021/09/28 10:22:48;;;;;;;3.17;2.57;;;17.80;99.90;;;;;;4995597;28;20434;-71
2021/09/28 10:25:30;;;;;;;7.38;3.00;;;17.90;99.90;;;;;;4994236;28;20420;-70
2021/09/28 10:28:05;;;;;;;5.43;2.80;;;17.90;99.90;;;;;;4996534;28;20258;-70
2021/09/28 10:30:30;;;;;;;4.73;2.73;;;17.90;99.90;;;;;;5007120;28;20407;-70
2021/09/28 10:32:57;;;;;;;5.83;2.70;;;17.90;99.90;;;;;;5008271;28;20438;-70
2021/09/28 10:35:24;;;;;;;7.13;2.83;;;17.80;99.90;;;;;;5000922;28;20179;-71
2021/09/28 10:37:55;;;;;;;6.40;2.40;;;17.80;99.90;;;;;;5012644;28;20447;-70
2021/09/28 10:40:20;;;;;;;4.87;2.13;;;17.80;99.90;;;;;;5013873;28;20437;-71
2021/09/28 10:42:53;;;;;;;8.00;2.47;;;17.90;99.90;;;;;;5001571;28;20451;-70
2021/09/28 10:45:38;;;;;;;6.57;2.40;;;18.00;99.90;;;;;;5002353;28;20160;-70
2021/09/28 10:48:11;;;;;;;6.33;2.60;;;18.10;99.90;;;;;;4999413;28;20470;-70
2021/09/28 10:50:41;;;;;;;3.93;2.40;;;18.10;99.90;;;;;;4999095;28;20427;-71
2021/09/28 10:53:18;;;;;;;7.67;3.07;;;18.10;99.90;;;;;;4997691;28;20451;-70
2021/09/28 10:56:06;;;;;;;4.33;2.60;;;18.10;99.90;;;;;;4998342;28;20435;-71
2021/09/28 10:58:55;;;;;;;6.73;3.00;;;18.20;99.90;;;;;;4998195;28;20493;-71
2021/09/28 11:01:24;;;;;;;5.00;2.53;;;18.20;99.90;;;;;;4998157;28;20501;-71
2021/09/28 11:03:55;;;;;;;6.10;3.10;;;18.30;99.90;;;;;;4997684;28;20921;-71
2021/09/28 11:06:56;;;;;;;6.20;2.67;;;18.30;99.90;;;;;;4997733;28;20415;-71
2021/09/28 11:09:26;;;;;;;5.97;2.20;;;18.20;99.90;;;;;;4999067;28;20882;-71
2021/09/28 11:11:55;;;;;;;6.17;3.40;;;18.20;99.90;;;;;;4998050;28;20399;-70
2021/09/28 11:14:23;;;;;;;9.67;2.60;;;18.30;99.90;;;;;;4997411;28;20414;-71
2021/09/28 11:16:56;;;;;;;7.60;2.47;;;18.40;99.90;;;;;;4997683;28;20912;-71
2021/09/28 11:19:23;;;;;;;5.87;2.53;;;18.30;99.90;;;;;;4998389;28;20395;-71
2021/09/28 11:21:49;;;;;;;10.53;3.10;;;18.40;99.90;;;;;;4998135;28;20411;-71
2021/09/28 11:24:19;;;;;;;6.50;2.60;;;18.30;99.90;;;;;;4997977;28;20740;-72
2021/09/28 11:26:46;;;;;;;3.53;2.10;;;18.30;99.90;;;;;;4997275;28;20469;-71
2021/09/28 11:29:19;;;;;;;4.80;2.50;;;18.40;99.90;;;;;;4997623;28;20427;-69
2021/09/28 11:31:45;;;;;;;8.97;2.43;;;18.50;99.90;;;;;;4997560;28;20463;-70
2021/09/28 11:34:11;;;;;;;8.37;2.30;;;18.60;99.90;;;;;;4998060;28;20443;-69
2021/09/28 11:36:39;;;;;;;4.27;2.60;;;18.60;99.90;;;;;;4997300;28;20180;-69
2021/09/28 11:39:13;;;;;;;4.77;2.63;;;18.60;99.90;;;;;;4996383;28;20291;-70
2021/09/28 11:41:40;;;;;;;6.50;2.50;;;18.60;99.90;;;;;;4997482;28;20803;-70
2021/09/28 11:44:06;;;;;;;4.53;2.40;;;18.60;99.90;;;;;;4997615;28;20419;-71
2021/09/28 11:46:33;;;;;;;5.40;2.30;;;18.60;99.90;;;;;;4995901;28;20489;-69
2021/09/28 11:49:07;;;;;;;7.77;2.70;;;18.70;99.90;;;;;;4996999;28;20246;-71
2021/09/28 11:51:52;;;;;;;3.20;1.43;;;18.70;99.90;;;;;;4996232;28;20411;-70
2021/09/28 11:54:18;;;;;;;2.40;1.90;;;18.80;99.90;;;;;;4997318;28;20419;-70
2021/09/28 11:56:47;;;;;;;6.50;2.30;;;18.80;99.90;;;;;;4997031;28;20423;-71
2021/09/28 11:59:16;;;;;;;6.00;2.03;;;18.80;99.90;;;;;;4998165;28;20188;-72
2021/09/28 12:01:42;;;;;;;6.43;2.50;;;18.80;99.90;;;;;;4997685;28;20948;-69
2021/09/28 12:09:39;;;;;;;4.30;2.60;;;18.70;99.90;;;;;;4996845;28;20415;-70
2021/09/28 12:12:15;;;;;;;7.30;2.23;;;18.70;99.90;;;;;;4997575;28;20783;-71
2021/09/28 12:14:48;;;;;;;3.17;1.90;;;18.80;99.80;;;;;;5006235;28;20810;-70
2021/09/28 12:17:23;;;;;;;4.90;2.00;;;18.80;99.10;;;;;;4997188;28;20955;-70
2021/09/28 12:19:53;;;;;;;7.17;3.00;;;18.80;99.00;;;;;;4996362;28;20469;-70
2021/09/28 12:22:35;;;;;;;7.10;3.33;;;18.80;99.20;;;;;;4997242;28;20932;-71
2021/09/28 12:25:07;;;;;;;4.40;2.13;;;18.80;99.50;;;;;;4996222;28;20416;-71
2021/09/28 12:27:33;;;;;;;4.70;1.97;;;18.90;99.90;;;;;;4997168;28;20744;-71
2021/09/28 12:30:06;;;;;;;6.37;2.10;;;19.00;99.90;;;;;;4995998;28;20446;-71
2021/09/28 12:32:32;;;;;;;4.77;1.80;;;19.10;99.90;;;;;;4996321;28;20418;-71
2021/09/28 12:35:02;;;;;;;7.73;2.40;;;19.10;99.70;;;;;;4996194;28;20419;-71
2021/09/28 12:37:29;;;;;;;7.50;2.30;;;19.10;99.30;;;;;;4996008;28;20207;-71
2021/09/28 12:40:10;;;;;;;3.10;1.60;;;19.20;99.20;;;;;;4996309;28;20912;-71
2021/09/28 12:42:39;;;;;;;2.97;1.70;;;19.30;99.10;;;;;;4996065;28;20423;-71
2021/09/28 12:45:11;;;;;;;3.87;1.80;;;19.20;97.80;;;;;;4996235;28;20442;-72
2021/09/28 12:47:45;;;;;;;3.30;1.70;;;19.20;96.80;;;;;;4995992;28;20475;-71
2021/09/28 12:50:24;;;;;;;4.20;1.70;;;19.20;96.30;;;;;;4995745;28;20427;-71
2021/09/28 12:52:55;;;;;;;3.80;1.70;;;19.20;96.40;;;;;;4995649;28;20443;-71
2021/09/28 12:55:20;;;;;;;5.70;1.63;;;19.20;96.70;;;;;;4996781;28;20881;-71